Terminal Aerodrome Forecast
Issued by NWS

Home | Current Version | Previous Version | Text Only | Print | Product List | Glossary On
Versions: 1 2 3 4 5 6 7 8 9 10 11 12 13 14 15 16 17 18 19 20 21 22 23
000
FTUS43 KAPX 301100 RRA
TAFPLN
TAF
KPLN 301140Z 3012/3112 31006KT P6SM SCT020 OVC035
     FM301400 24006KT P6SM VCSH BKN020 OVC120
     FM310200 29005KT 5SM SHRA BR OVC018
     FM311000 35018G32KT 3SM -SHSN OVC010=

USA.gov is the U.S. government's official web portal to all federal, state and local government web resources and services.